createdAt,value
2019-05-23T05:11:51.414Z,0.00
2019-05-23T05:21:50.064Z,0.00
2019-05-23T05:31:49.785Z,0.10
2019-05-23T05:41:50.418Z,60.21
2019-05-23T05:51:49.914Z,129.15
2019-05-23T06:01:48.963Z,211.44
2019-05-23T06:11:49.259Z,240.28
2019-05-23T06:21:50.100Z,377.77
2019-05-23T06:31:49.773Z,501.91
2019-05-23T06:41:52.536Z,617.60
2019-05-23T06:51:51.761Z,648.24
2019-05-23T07:01:49.572Z,918.65
2019-05-23T07:11:51.047Z,1037.96
2019-05-23T07:21:50.939Z,1271.03
2019-05-23T07:31:51.113Z,1303.05
2019-05-23T07:41:47.939Z,1504.50
2019-05-23T07:51:50.084Z,1721.29
2019-05-23T08:01:50.413Z,1721.47
2019-05-23T08:11:49.245Z,1821.63
2019-05-23T08:21:49.738Z,1736.35
2019-05-23T08:31:51.253Z,1786.63
2019-05-23T08:41:49.811Z,2038.52
2019-05-23T08:51:51.633Z,1670.29
2019-05-23T09:01:49.698Z,1938.48
2019-05-23T09:11:51.820Z,1947.86
2019-05-23T09:21:57.550Z,1927.95
2019-05-23T09:31:49.821Z,1807.95
2019-05-23T09:41:49.791Z,1774.13
2019-05-23T09:51:54.631Z,1867.97
2019-05-23T10:01:49.848Z,1972.09
2019-05-23T10:11:49.900Z,2055.41
2019-05-23T10:21:49.317Z,1941.51
2019-05-23T10:31:49.357Z,1982.55
2019-05-23T10:41:49.628Z,2009.48
2019-05-23T10:51:49.406Z,2164.85
2019-05-23T11:01:49.855Z,1967.42
2019-05-23T11:11:48.896Z,2030.50
2019-05-23T11:21:49.262Z,2080.75
2019-05-23T11:31:51.090Z,1964.12
2019-05-23T11:41:49.319Z,1964.64
2019-05-23T12:50:31.911Z,1988.22
2019-05-23T13:00:31.460Z,1913.32
2019-05-23T13:10:32.121Z,1933.78
2019-05-23T17:44:47.991Z,1559.77
2019-05-23T17:54:49.488Z,1288.61
2019-05-23T18:04:49.608Z,1323.49
2019-05-23T18:14:49.825Z,1263.15
2019-05-23T18:24:46.730Z,1136.79
2019-05-23T18:34:49.672Z,1261.92
2019-05-23T18:44:47.905Z,1184.07
2019-05-23T18:54:49.917Z,1182.08
2019-05-23T19:04:46.696Z,987.67
